KHMN

Holloman AFB Airport

Alamogordo, New Mexico, USA
METAR KHMN 221358Z AUTO 02005KT 10SM CLR 11/10 A3019 RMK AO2 SLP183 T01090096 $
Observed Flight Rules
Oct-22 @ 13:58 UTC (51 minutes ago) Visual Flight Rules
Wind Visibility Clouds
20° at 5 knots 10 miles
  • Clear skies
Temperatures Readings
Current 11°C / 52°F
Dewpoint 10°C / 50°F
Humidity 94%
Altimeter 30.19" Hg
Pressure 1018.3 hPa
Elevation 1248
METAR KHMN 221358Z AUTO 02005KT 10SM CLR 11/10 A3019 RMK AO2 SLP183 T01090096 $
Observed Flight Rules
Oct-22 @ 13:58 UTC
(51 minutes ago)
VFR
Wind Visibility
20° at 5 knots 10 miles
Clouds
  • Clear skies
Temperature Dewpoint
11°C / 52°F 10°C / 50°F
Humidity Altimeter Pressure
94% 30.19" Hg 1018.3 hPa